Angelina County Information

FAA: LFK - ICAO: KLFK

Angelina County (Airport) Location

State Texas
County Angelina
City Lufkin
Angelina County (Airport) is 7 miles southwest of Lufkin, TX.
Latitude 31-14-02.5000N
Longitude 094-45-00.0000W
Elevation 295ft

Angelina County METARs

METAR KLFK 261053Z AUTO 10003KT 10SM CLR 14/13 A2992 RMK AO2 SLP129 T01440133
Altimeter 29.92"
Temperature 14.4°C (57.9°F)
Wind 100° at 3KT
Clouds Skies are clear.
Visibility 10.0mi
Time observed: 2022-05-26T10:53:00Z

Angelina County (Airport) Details

Status Operational
Activation August 1944
Ownership Public
Usage Public
Chart HOUSTON
ATC on-site No
Beacon schedule sunset-sunrise
Beacon color clear green

Angelina County (Airport) Contacts

Owner ANGELINA COUNTY
Owner address COUNTY COURTHOUSE, LUFKIN, TX 75901
Owner phone 936-634-5413
Manager R. W. WEEDFALL
Manager address 5458 HC RD 3230, LONE OAK, TX 75453
Manager phone 903-662-5267

Angelina County Radio Frequencies

Angelina County (Airport) Radio Frequencies

UNICOM 123
Common traffic advisory frequency (CTAF) 123